Latest Coastal Weather Observations for Warrnambool

IDV60701

Issued at 4:11 am EST Thursday 30 July 2015 (issued every 10 minutes, with the page automatically refreshed every 10 minutes)

About coastal observations | Map of coastal stations | Coastal observations for VIC | Marine services | Other Formats
Station Details ID: 090186 Name: WARRNAMBOOL AIRPORT NDB Lat: -38.29 Lon: 142.45 Height: 70.8 m
Data from the previous 72 hours. | See also: Recent months at Warrnambool
Date/Time
EST
Temp

°C
Wind Pressure Rain
since 9am
mm
Weather Cloud Vis
km
Sea
Height
m
Swell
Dir
 
Speed
knots
Gust
knots
hPa Trend Height
m
Period
s
Dir
30/04:00am 3.9 N 11 14 1019.8 - 0.0 - - 10 - - - -
30/03:30am 4.3 N 11 14 1020.4 - 0.0 - - 10 - - - -
30/03:00am 3.5 NNE 10 12 1020.7 - 0.0 - - 10 - - - -
30/02:30am 2.9 NNE 8 11 1021.1 - 0.0 - Partly cloudy 10 - - - -
30/02:00am 4.1 N 10 13 1021.7 - 0.0 - Partly cloudy 10 - - - -
30/01:30am 4.8 NNE 12 15 1022.0 - 0.0 - Partly cloudy 10 - - - -
30/01:00am 5.0 N 12 15 1022.4 - 0.0 - - 10 - - - -
30/12:30am 4.7 NNE 9 11 1023.1 - 0.0 - - 10 - - - -
30/12:00am 5.6 NNE 9 12 1023.5 - 0.0 - Partly cloudy 10 - - - -
 
Date/Time
EST
Temp

°C
Wind Pressure Rain
since 9am
mm
Weather Cloud Vis
km
Sea
Height
m
Swell
Dir
 
Speed
knots
Gust
knots
hPa Trend Height
m
Period
s
Dir
29/11:30pm 6.4 N 11 14 1023.7 - 0.0 - - 10 - - - -
29/11:00pm 6.0 N 9 11 1024.4 - 0.0 - - 10 - - - -
29/10:30pm 6.5 N 10 12 1024.6 - 0.0 - - 10 - - - -
29/10:00pm 6.2 N 9 11 1025.1 - 0.0 - - 10 - - - -
29/09:30pm 6.9 N 11 13 1025.2 - 0.0 - - 10 - - - -
29/09:00pm 6.9 N 10 12 1025.3 - 0.0 - Cloudy 10 - - - -
29/08:30pm 6.8 N 8 10 1025.5 - 0.0 - - 10 - - - -
29/08:00pm 7.2 N 9 10 1025.6 - 0.0 - - 10 - - - -
29/07:30pm 6.9 N 8 9 1025.9 - 0.0 - - 10 - - - -
29/07:00pm 7.1 N 7 9 1025.9 - 0.0 - - 10 - - - -
29/06:30pm 7.1 N 7 9 1025.7 - 0.0 - - 10 - - - -
29/06:00pm 7.9 N 7 9 1025.9 - 0.0 - Mostly cloudy 10 - - - -
29/05:30pm 8.7 N 8 9 1025.6 - 0.0 - - 10 - - - -
29/05:00pm 9.8 N 9 11 1026.0 - 0.0 - Partly cloudy 10 - - - -
29/04:30pm 10.2 N 10 14 1026.3 - 0.0 - Partly cloudy 10 - - - -
29/04:00pm 10.5 N 10 12 1026.7 - 0.0 - Partly cloudy 10 - - - -
29/03:30pm 10.7 N 11 15 1026.7 - 0.0 - Partly cloudy 10 - - - -
29/03:00pm 10.8 N 11 15 1027.0 - 0.0 - Cloudy 10 - - - -
29/02:30pm 10.9 N 13 18 1027.1 - 0.0 - Cloudy 10 - - - -
29/02:00pm 11.0 N 14 18 1027.7 - 0.0 - Cloudy 10 - - - -
29/01:30pm 10.8 NNW 13 17 1028.5 - 0.0 - Cloudy 10 - - - -
29/01:00pm 10.8 NNW 11 18 1029.3 - 0.0 - Cloudy 10 - - - -
29/12:30pm 10.5 N 10 14 1029.6 - 0.0 - Cloudy 10 - - - -
29/12:00pm 10.2 N 12 16 1030.5 - 0.0 - Cloudy 10 - - - -
29/11:30am 10.4 N 13 17 1030.8 - 0.0 - Partly cloudy 10 - - - -
29/11:00am 10.6 N 12 16 1031.2 - 0.0 - Partly cloudy 10 - - - -
29/10:30am 10.2 N 9 11 1031.3 - 0.0 - - 10 - - - -
29/10:00am 8.3 N 9 11 1031.3 - 0.0 - - 10 - - - -
29/09:30am 8.1 N 7 9 1031.5 - 0.0 - Partly cloudy 10 - - - -
29/09:00am 6.8 N 8 9 1031.8 - 1.0 - Cloudy 10 - - - -
29/08:30am 6.1 N 8 9 1031.8 - 1.0 - Partly cloudy 10 - - - -
29/08:00am 5.4 N 7 8 1031.8 - 1.0 - Partly cloudy 10 - - - -
29/07:30am 5.2 N 8 10 1031.9 - 1.0 - Partly cloudy 10 - - - -
29/07:00am 5.6 N 9 11 1031.7 - 1.0 - Cloudy 10 - - - -
29/06:30am 5.4 N 9 10 1031.6 - 1.0 - - 10 - - - -
29/06:00am 5.4 N 8 10 1031.3 - 1.0 - Cloudy 10 - - - -
29/05:30am 5.5 N 9 11 1031.3 - 1.0 - - 10 - - - -
29/05:00am 5.6 N 9 10 1031.5 - 1.0 - - 10 - - - -
29/04:30am 5.0 N 8 9 1031.8 - 1.0 - - 10 - - - -
29/04:00am 5.8 NNW 8 10 1032.0 - 1.0 - - 10 - - - -
29/03:30am 5.0 N 9 10 1031.8 - 0.8 - - 10 - - - -
29/03:00am 4.6 N 9 11 1032.1 - 0.8 - Partly cloudy 10 - - - -
29/02:30am 3.5 N 8 9 1032.0 - 0.8 - - 10 - - - -
29/02:00am 4.0 N 7 9 1032.3 - 0.8 - - 10 - - - -
29/01:30am 4.7 N 7 9 1032.4 - 0.8 - Partly cloudy 10 - - - -
29/01:00am 5.5 N 7 8 1033.0 - 0.8 - Cloudy 10 - - - -
29/12:30am 4.9 N 7 9 1033.1 - 0.8 - Partly cloudy 10 - - - -
29/12:00am 5.0 N 8 9 1033.1 - 0.8 - - 10 - - - -
 
Date/Time
EST
Temp

°C
Wind Pressure Rain
since 9am
mm
Weather Cloud Vis
km
Sea
Height
m
Swell
Dir
 
Speed
knots
Gust
knots
hPa Trend Height
m
Period
s
Dir
28/11:30pm 5.3 N 8 9 1032.8 - 0.8 - - 10 - - - -
28/11:00pm 5.1 N 7 8 1033.4 - 0.8 - - 10 - - - -
28/10:30pm 5.8 N 8 8 1033.6 - 0.8 - - 10 - - - -
28/10:00pm 6.5 N 9 10 1033.7 - 0.8 - - 10 - - - -
28/09:30pm 6.4 N 8 9 1033.8 - 0.8 - - 10 - - - -
28/09:00pm 4.5 N 6 7 1033.9 - 0.8 - - 10 - - - -
28/08:30pm 4.6 N 6 7 1034.0 - 0.8 - - 10 - - - -
28/08:00pm 5.5 N 6 7 1034.2 - 0.8 - - 10 - - - -
28/07:30pm 6.9 NNW 6 8 1034.1 - 0.8 - Partly cloudy 10 - - - -
28/07:00pm 8.5 NNW 6 8 1033.9 - 0.8 - Cloudy 10 - - - -
28/06:30pm 8.4 NW 6 6 1034.0 - 0.8 - Cloudy 10 - - - -
28/06:00pm 8.9 NNW 5 6 1033.7 - 0.8 Recent precip. Cloudy 10 - - - -
28/05:30pm 9.4 NNW 6 8 1033.7 - 0.8 - Partly cloudy 10 - - - -
28/05:00pm 9.8 NW 5 7 1033.7 - 0.6 - Partly cloudy 10 - - - -
28/04:53pm 9.8 NW 6 9 1033.7 - 0.6 - Partly cloudy 10 - - - -
28/04:40pm 9.9 W 8 12 1033.7 - 0.6 - Partly cloudy 5 - - - -
28/04:30pm 9.9 WNW 8 10 1033.7 - 0.6 - Partly cloudy 10 - - - -
28/04:00pm 10.0 W 11 16 1033.6 - 0.6 - Partly cloudy 8 - - - -
28/03:30pm 10.8 WNW 8 11 1033.6 - 0.6 - Partly cloudy 10 - - - -
28/03:09pm 10.4 WNW 9 13 1033.5 - 0.6 - Partly cloudy 10 - - - -
28/03:00pm 10.2 W 11 15 1033.5 - 0.6 Rain Cloudy 6 - - - -
28/02:48pm 10.9 W 12 15 1033.5 - 0.2 - Partly cloudy 5 - - - -
28/02:30pm 11.9 W 9 11 1033.4 - 0.0 - Partly cloudy 10 - - - -
28/02:08pm 12.0 WNW 9 14 1033.5 - 0.0 - Partly cloudy 10 - - - -
28/02:00pm 11.6 WNW 9 14 1033.6 - 0.0 - Partly cloudy 10 - - - -
28/01:30pm 10.9 NW 10 13 1034.0 - 0.0 - Partly cloudy 10 - - - -
28/01:00pm 10.6 NW 11 15 1034.3 - 0.0 - Partly cloudy 10 - - - -
28/12:53pm 10.6 NW 10 13 1034.4 - 0.0 - Partly cloudy 10 - - - -
28/12:38pm 10.6 NW 12 16 1034.7 - 0.0 - Partly cloudy 5 - - - -
28/12:30pm 10.4 NW 13 16 1034.7 - 0.0 - Partly cloudy 10 - - - -
28/12:00pm 10.5 NW 14 19 1035.1 - 0.0 - Cloudy 10 - - - -
28/11:54am 10.8 NW 14 17 1035.1 - 0.0 - Partly cloudy 10 - - - -
28/11:30am 11.0 NW 15 17 1035.4 - 0.0 - Partly cloudy 10 - - - -
28/11:00am 9.8 NW 14 18 1035.4 - 0.0 - Partly cloudy 10 - - - -
28/10:30am 9.6 NW 14 19 1035.4 - 0.0 - Partly cloudy 10 - - - -
28/10:00am 8.8 NW 12 16 1035.2 - 0.0 - - 10 - - - -
28/09:30am 7.6 NW 13 16 1035.3 - 0.0 - Partly cloudy 10 - - - -
28/09:00am 6.8 NW 11 14 1035.2 - 6.4 - Mostly clear 10 - - - -
28/08:30am 5.9 NNW 10 15 1035.0 - 6.4 - - 10 - - - -
28/08:00am 5.1 NNW 8 11 1034.8 - 6.4 - - 10 - - - -
28/07:30am 4.9 NW 11 14 1034.6 - 6.4 - - 10 - - - -
28/07:00am 4.7 NW 9 11 1034.1 - 6.4 - - 10 - - - -
28/06:30am 4.7 NW 9 11 1033.8 - 6.4 - Partly cloudy 10 - - - -
28/06:00am 4.8 NW 9 12 1033.4 - 6.4 - Mostly clear 10 - - - -
28/05:30am 4.8 NW 10 12 1033.1 - 6.4 - - 10 - - - -
28/05:00am 5.0 NW 10 13 1032.9 - 6.4 - - 10 - - - -
28/04:30am 5.1 NW 10 12 1032.7 - 6.4 - Partly cloudy 10 - - - -
28/04:00am 5.5 NW 10 14 1032.8 - 6.4 - - 10 - - - -
28/03:30am 5.8 NW 7 10 1033.0 - 6.4 - Partly cloudy 10 - - - -
28/03:00am 5.0 NW 9 11 1033.2 - 6.4 - Partly cloudy 10 - - - -
28/02:30am 6.1 NW 9 12 1033.1 - 6.4 - Partly cloudy 10 - - - -
28/02:00am 6.1 NW 10 13 1032.8 - 6.4 - Partly cloudy 10 - - - -
28/01:30am 6.6 NW 11 13 1032.5 - 6.4 - Partly cloudy 10 - - - -
28/01:00am 6.9 WNW 8 11 1032.5 - 6.2 - Partly cloudy 8 - - - -
28/12:30am 6.6 NW 8 12 1032.3 - 6.2 - Partly cloudy 10 - - - -
28/12:00am 6.5 NW 9 12 1032.2 - 6.2 Showers Cloudy 10 - - - -
 
Date/Time
EST
Temp

°C
Wind Pressure Rain
since 9am
mm
Weather Cloud Vis
km
Sea
Height
m
Swell
Dir
 
Speed
knots
Gust
knots
hPa Trend Height
m
Period
s
Dir
27/11:30pm 6.6 NW 8 11 1032.1 - 6.2 - Partly cloudy 10 - - - -
27/11:00pm 7.1 WNW 8 12 1032.3 - 6.0 - Partly cloudy 10 - - - -
27/10:30pm 6.3 NW 10 12 1032.2 - 6.0 - Partly cloudy 10 - - - -
27/10:00pm 6.7 NW 10 13 1032.2 - 6.0 - Partly cloudy 10 - - - -
27/09:30pm 6.6 NW 9 12 1031.9 - 6.0 - Partly cloudy 10 - - - -
27/09:00pm 7.2 WNW 7 10 1032.0 - 6.0 Showers Cloudy 10 - - - -
27/08:30pm 7.6 WNW 7 9 1032.0 - 6.0 - Partly cloudy 10 - - - -
27/08:00pm 7.9 WNW 9 12 1031.9 - 6.0 - Partly cloudy 10 - - - -
27/07:30pm 8.1 WNW 10 12 1031.8 - 6.0 - Partly cloudy 10 - - - -
27/07:08pm 8.5 WNW 9 13 1031.7 - 6.0 - Partly cloudy 10 - - - -
27/07:00pm 8.6 WNW 9 13 1031.6 - 6.0 - Partly cloudy 6 - - - -
27/06:56pm 8.6 WNW 8 13 1031.6 - 6.0 - Partly cloudy 5 - - - -
27/06:30pm 8.8 W 9 13 1031.5 - 4.6 - Partly cloudy 10 - - - -
27/06:00pm 9.0 W 10 13 1031.0 - 4.4 Rain Cloudy 10 - - - -
27/05:30pm 9.6 W 11 15 1030.9 - 4.2 - Partly cloudy 10 - - - -
27/05:00pm 10.2 W 13 17 1030.6 - 4.2 - Partly cloudy 10 - - - -
27/04:30pm 11.1 W 15 20 1030.5 - 4.2 - Partly cloudy 10 - - - -
27/04:00pm 10.0 W 14 17 1030.4 - 4.2 - Partly cloudy 10 - - - -
27/03:30pm 10.7 WSW 16 20 1030.1 - 4.2 - Partly cloudy 10 - - - -
27/03:00pm 10.8 WSW 18 23 1029.7 - 4.2 - Partly cloudy 10 - - - -
27/02:30pm 11.4 WSW 18 23 1029.5 - 4.2 - Partly cloudy 10 - - - -
27/02:00pm 11.0 WSW 17 23 1029.3 - 4.2 - Partly cloudy 10 - - - -
27/01:30pm 10.7 WSW 14 18 1029.3 - 4.2 - Partly cloudy 10 - - - -
27/01:00pm 10.2 WSW 15 19 1029.4 - 4.2 - Partly cloudy 10 - - - -
27/12:41pm 10.7 W 12 21 1029.5 - 4.2 - Partly cloudy 10 - - - -
27/12:30pm 10.1 WNW 7 9 1029.7 - 4.2 - Partly cloudy 10 - - - -
27/12:25pm 9.2 W 8 11 1029.8 - 4.2 - Partly cloudy 10 - - - -
27/12:20pm 8.6 W 9 11 1029.9 - 4.2 - Partly cloudy 9 - - - -
27/12:02pm 7.8 SW 18 31 1030.3 - 3.0 - Partly cloudy 3 - - - -
27/12:00pm 7.8 WSW 17 31 1030.3 - 2.6 Showers Cloudy 3 - - - -
27/11:59am 8.0 WSW 16 31 1030.3 - 2.4 - Partly cloudy 5 - - - -
27/11:45am 9.8 W 11 15 1030.0 - 0.8 - Partly cloudy 10 - - - -
27/11:34am 10.2 W 12 16 1030.2 - 0.8 - Partly cloudy 10 - - - -
27/11:30am 9.9 W 12 16 1030.2 - 0.8 - Partly cloudy 10 - - - -
27/11:00am 9.5 WNW 11 16 1030.1 - 0.8 - Partly cloudy 10 - - - -
27/10:44am 9.5 WNW 11 15 1030.1 - 0.8 - Partly cloudy 10 - - - -
27/10:34am 8.6 WNW 11 17 1029.9 - 0.8 - Partly cloudy 10 - - - -
27/10:31am 8.6 WNW 11 16 1029.9 - 0.8 - Partly cloudy 9 - - - -
27/10:30am 8.6 WNW 11 16 1029.8 - 0.8 - Partly cloudy 10 - - - -
27/10:15am 8.6 WNW 12 16 1029.6 - 0.6 - Partly cloudy 5 - - - -
27/10:00am 8.7 WNW 9 14 1029.3 - 0.0 - Partly cloudy 10 - - - -
27/09:30am 6.7 NW 8 12 1029.1 - 0.0 - Partly cloudy 10 - - - -
27/09:00am 6.3 NW 11 15 1028.7 - 8.2 Rain Mostly cloudy 10 - - - -
27/08:58am 6.2 NW 11 15 1028.6 - 8.2 - Partly cloudy 10 - - - -
27/08:38am 6.1 WNW 10 14 1028.5 - 8.0 - Partly cloudy 5 - - - -
27/08:30am 6.2 NW 11 13 1028.2 - 7.8 - Partly cloudy 10 - - - -
27/08:00am 5.7 NW 10 13 1028.0 - 7.6 - Partly cloudy 10 - - - -
27/07:30am 5.1 NW 9 12 1027.8 - 7.0 - Partly cloudy 10 - - - -
27/07:00am 4.8 NW 10 11 1027.2 - 6.8 - Partly cloudy 10 - - - -
27/06:30am 5.2 NW 11 16 1027.0 - 6.8 - Partly cloudy 10 - - - -
27/06:00am 5.5 NW 8 12 1026.5 - 6.2 Showers Cloudy 10 - - - -
27/05:30am 5.8 WNW 11 15 1026.4 - 6.2 - Partly cloudy 10 - - - -
27/05:00am 6.7 W 11 15 1026.0 - 5.6 - Partly cloudy 10 - - - -
27/04:30am 5.4 NW 11 13 1025.9 - 5.0 - Partly cloudy 10 - - - -

Other Formats:

Comma delimited format used in spreadsheet applications
http://www.bom.gov.au/fwo/IDV60701/IDV60701.94837.axf

JavaScript Object Notation format (JSON) in row-major order
http://www.bom.gov.au/fwo/IDV60701/IDV60701.94837.json